sensor_id;sensor_type;location;lat;lon;timestamp;P1;durP1;ratioP1;P2;durP2;ratioP2
79308;SDS011;68767;53.078;7.386;2023-12-07T00:02:03;27.38;;;13.88;;
79308;SDS011;68767;53.078;7.386;2023-12-07T00:04:31;26.55;;;13.02;;
79308;SDS011;68767;53.078;7.386;2023-12-07T00:06:58;28.25;;;13.70;;
79308;SDS011;68767;53.078;7.386;2023-12-07T00:09:25;29.02;;;13.80;;
79308;SDS011;68767;53.078;7.386;2023-12-07T00:11:52;29.45;;;13.88;;
79308;SDS011;68767;53.078;7.386;2023-12-07T00:14:18;25.08;;;12.80;;
79308;SDS011;68767;53.078;7.386;2023-12-07T00:16:45;31.30;;;13.05;;
79308;SDS011;68767;53.078;7.386;2023-12-07T00:19:12;29.83;;;13.32;;
79308;SDS011;68767;53.078;7.386;2023-12-07T00:21:40;24.15;;;12.38;;
79308;SDS011;68767;53.078;7.386;2023-12-07T00:24:07;26.60;;;12.90;;
79308;SDS011;68767;53.078;7.386;2023-12-07T00:26:34;33.05;;;12.98;;
79308;SDS011;68767;53.078;7.386;2023-12-07T00:29:01;28.02;;;12.85;;
79308;SDS011;68767;53.078;7.386;2023-12-07T00:31:28;28.27;;;12.90;;
79308;SDS011;68767;53.078;7.386;2023-12-07T00:33:55;25.67;;;11.95;;
79308;SDS011;68767;53.078;7.386;2023-12-07T00:36:22;27.63;;;12.55;;
79308;SDS011;68767;53.078;7.386;2023-12-07T00:38:49;27.83;;;11.45;;
79308;SDS011;68767;53.078;7.386;2023-12-07T00:41:16;27.15;;;12.02;;
79308;SDS011;68767;53.078;7.386;2023-12-07T00:43:44;28.23;;;13.07;;
79308;SDS011;68767;53.078;7.386;2023-12-07T00:46:10;29.05;;;12.18;;
79308;SDS011;68767;53.078;7.386;2023-12-07T00:48:37;27.75;;;13.43;;
79308;SDS011;68767;53.078;7.386;2023-12-07T00:51:04;28.08;;;12.82;;
79308;SDS011;68767;53.078;7.386;2023-12-07T00:53:32;25.88;;;12.30;;
79308;SDS011;68767;53.078;7.386;2023-12-07T00:55:59;26.40;;;12.77;;
79308;SDS011;68767;53.078;7.386;2023-12-07T00:58:26;30.83;;;13.40;;
79308;SDS011;68767;53.078;7.386;2023-12-07T01:00:53;27.38;;;12.55;;
79308;SDS011;68767;53.078;7.386;2023-12-07T01:03:20;30.55;;;11.88;;
79308;SDS011;68767;53.078;7.386;2023-12-07T01:05:47;29.85;;;12.98;;
79308;SDS011;68767;53.078;7.386;2023-12-07T01:08:14;29.30;;;12.10;;
79308;SDS011;68767;53.078;7.386;2023-12-07T01:10:41;25.08;;;12.40;;
79308;SDS011;68767;53.078;7.386;2023-12-07T01:13:08;21.98;;;11.32;;
79308;SDS011;68767;53.078;7.386;2023-12-07T01:15:35;26.80;;;12.55;;
79308;SDS011;68767;53.078;7.386;2023-12-07T01:18:02;30.42;;;13.40;;
79308;SDS011;68767;53.078;7.386;2023-12-07T01:20:29;27.55;;;12.35;;
79308;SDS011;68767;53.078;7.386;2023-12-07T01:22:56;22.33;;;11.25;;
79308;SDS011;68767;53.078;7.386;2023-12-07T01:25:23;25.17;;;11.65;;
79308;SDS011;68767;53.078;7.386;2023-12-07T01:27:51;24.23;;;12.18;;
79308;SDS011;68767;53.078;7.386;2023-12-07T01:30:18;26.73;;;12.52;;
79308;SDS011;68767;53.078;7.386;2023-12-07T01:32:45;24.92;;;10.88;;
79308;SDS011;68767;53.078;7.386;2023-12-07T01:35:12;25.23;;;11.98;;
79308;SDS011;68767;53.078;7.386;2023-12-07T01:37:39;26.50;;;12.20;;
79308;SDS011;68767;53.078;7.386;2023-12-07T01:40:06;24.83;;;12.07;;
79308;SDS011;68767;53.078;7.386;2023-12-07T01:42:37;26.50;;;12.20;;
79308;SDS011;68767;53.078;7.386;2023-12-07T01:45:05;29.35;;;12.65;;
79308;SDS011;68767;53.078;7.386;2023-12-07T01:47:35;23.92;;;12.10;;
79308;SDS011;68767;53.078;7.386;2023-12-07T01:50:03;27.52;;;12.38;;
79308;SDS011;68767;53.078;7.386;2023-12-07T01:52:31;30.20;;;12.13;;
79308;SDS011;68767;53.078;7.386;2023-12-07T01:54:59;26.83;;;11.95;;
79308;SDS011;68767;53.078;7.386;2023-12-07T01:57:26;25.73;;;11.43;;
79308;SDS011;68767;53.078;7.386;2023-12-07T01:59:54;26.23;;;11.30;;
79308;SDS011;68767;53.078;7.386;2023-12-07T02:02:21;29.33;;;12.35;;
79308;SDS011;68767;53.078;7.386;2023-12-07T02:04:48;27.88;;;12.93;;
79308;SDS011;68767;53.078;7.386;2023-12-07T02:07:16;23.65;;;12.13;;
79308;SDS011;68767;53.078;7.386;2023-12-07T02:09:44;23.15;;;10.60;;
79308;SDS011;68767;53.078;7.386;2023-12-07T02:12:11;19.52;;;11.00;;
79308;SDS011;68767;53.078;7.386;2023-12-07T02:14:38;26.38;;;12.13;;
79308;SDS011;68767;53.078;7.386;2023-12-07T02:23:08;26.08;;;11.77;;
79308;SDS011;68767;53.078;7.386;2023-12-07T02:25:36;23.05;;;10.90;;
79308;SDS011;68767;53.078;7.386;2023-12-07T02:28:04;30.67;;;12.95;;
79308;SDS011;68767;53.078;7.386;2023-12-07T02:30:31;25.58;;;11.75;;
79308;SDS011;68767;53.078;7.386;2023-12-07T02:32:58;31.00;;;11.25;;
79308;SDS011;68767;53.078;7.386;2023-12-07T02:35:25;22.70;;;11.32;;
79308;SDS011;68767;53.078;7.386;2023-12-07T02:37:53;22.55;;;10.50;;
79308;SDS011;68767;53.078;7.386;2023-12-07T02:40:24;27.10;;;10.32;;
79308;SDS011;68767;53.078;7.386;2023-12-07T02:42:53;22.25;;;9.93;;
79308;SDS011;68767;53.078;7.386;2023-12-07T02:45:21;29.25;;;11.88;;
79308;SDS011;68767;53.078;7.386;2023-12-07T02:47:48;22.95;;;11.93;;
79308;SDS011;68767;53.078;7.386;2023-12-07T02:50:15;29.77;;;11.27;;
79308;SDS011;68767;53.078;7.386;2023-12-07T02:52:42;21.67;;;10.00;;
79308;SDS011;68767;53.078;7.386;2023-12-07T02:55:09;24.80;;;11.75;;
79308;SDS011;68767;53.078;7.386;2023-12-07T02:57:37;23.60;;;11.70;;
79308;SDS011;68767;53.078;7.386;2023-12-07T03:00:04;24.15;;;10.93;;
79308;SDS011;68767;53.078;7.386;2023-12-07T03:02:34;24.85;;;9.82;;
79308;SDS011;68767;53.078;7.386;2023-12-07T03:05:01;25.70;;;10.77;;
79308;SDS011;68767;53.078;7.386;2023-12-07T03:07:29;25.05;;;11.40;;
79308;SDS011;68767;53.078;7.386;2023-12-07T03:09:56;27.25;;;12.18;;
79308;SDS011;68767;53.078;7.386;2023-12-07T03:12:23;34.28;;;13.93;;
79308;SDS011;68767;53.078;7.386;2023-12-07T03:14:51;36.20;;;15.68;;
79308;SDS011;68767;53.078;7.386;2023-12-07T03:17:18;27.42;;;11.65;;
79308;SDS011;68767;53.078;7.386;2023-12-07T03:19:45;20.83;;;10.18;;
79308;SDS011;68767;53.078;7.386;2023-12-07T03:22:12;24.73;;;10.77;;
79308;SDS011;68767;53.078;7.386;2023-12-07T03:24:40;23.65;;;11.48;;
79308;SDS011;68767;53.078;7.386;2023-12-07T03:27:12;25.67;;;11.02;;
79308;SDS011;68767;53.078;7.386;2023-12-07T03:29:39;23.50;;;10.80;;
79308;SDS011;68767;53.078;7.386;2023-12-07T03:32:06;25.58;;;12.55;;
79308;SDS011;68767;53.078;7.386;2023-12-07T03:34:33;21.42;;;9.73;;
79308;SDS011;68767;53.078;7.386;2023-12-07T03:37:00;20.65;;;10.63;;
79308;SDS011;68767;53.078;7.386;2023-12-07T03:39:28;38.42;;;16.58;;
79308;SDS011;68767;53.078;7.386;2023-12-07T03:41:56;41.35;;;18.63;;
79308;SDS011;68767;53.078;7.386;2023-12-07T03:44:23;24.92;;;11.52;;
79308;SDS011;68767;53.078;7.386;2023-12-07T03:46:50;22.67;;;9.70;;
79308;SDS011;68767;53.078;7.386;2023-12-07T03:49:17;23.98;;;10.40;;
79308;SDS011;68767;53.078;7.386;2023-12-07T03:51:44;21.58;;;9.93;;
79308;SDS011;68767;53.078;7.386;2023-12-07T03:54:10;23.52;;;10.45;;
79308;SDS011;68767;53.078;7.386;2023-12-07T03:56:37;21.17;;;10.55;;
79308;SDS011;68767;53.078;7.386;2023-12-07T03:59:04;19.83;;;10.65;;
79308;SDS011;68767;53.078;7.386;2023-12-07T04:01:31;20.92;;;9.02;;
79308;SDS011;68767;53.078;7.386;2023-12-07T04:03:59;22.75;;;10.45;;
79308;SDS011;68767;53.078;7.386;2023-12-07T04:06:27;20.30;;;10.00;;
79308;SDS011;68767;53.078;7.386;2023-12-07T04:08:54;20.35;;;10.38;;
79308;SDS011;68767;53.078;7.386;2023-12-07T04:11:21;30.52;;;12.35;;
79308;SDS011;68767;53.078;7.386;2023-12-07T04:13:48;64.57;;;26.80;;
79308;SDS011;68767;53.078;7.386;2023-12-07T04:16:15;21.55;;;9.82;;
79308;SDS011;68767;53.078;7.386;2023-12-07T04:18:43;27.08;;;10.93;;
79308;SDS011;68767;53.078;7.386;2023-12-07T04:21:10;24.25;;;9.75;;
79308;SDS011;68767;53.078;7.386;2023-12-07T04:23:37;21.92;;;9.57;;
79308;SDS011;68767;53.078;7.386;2023-12-07T04:26:04;22.83;;;10.15;;
79308;SDS011;68767;53.078;7.386;2023-12-07T04:28:31;27.80;;;10.95;;
79308;SDS011;68767;53.078;7.386;2023-12-07T04:30:58;17.00;;;8.18;;
79308;SDS011;68767;53.078;7.386;2023-12-07T04:33:25;24.20;;;11.23;;
79308;SDS011;68767;53.078;7.386;2023-12-07T04:35:52;19.70;;;9.75;;
79308;SDS011;68767;53.078;7.386;2023-12-07T04:38:19;22.08;;;10.02;;
79308;SDS011;68767;53.078;7.386;2023-12-07T04:40:46;22.17;;;10.45;;
79308;SDS011;68767;53.078;7.386;2023-12-07T04:43:13;21.55;;;10.45;;
79308;SDS011;68767;53.078;7.386;2023-12-07T04:45:40;22.88;;;10.32;;
79308;SDS011;68767;53.078;7.386;2023-12-07T04:48:07;23.15;;;11.07;;
79308;SDS011;68767;53.078;7.386;2023-12-07T04:50:34;25.17;;;11.05;;
79308;SDS011;68767;53.078;7.386;2023-12-07T04:53:01;22.20;;;10.68;;
79308;SDS011;68767;53.078;7.386;2023-12-07T04:55:28;22.85;;;9.88;;
79308;SDS011;68767;53.078;7.386;2023-12-07T04:57:55;21.10;;;10.73;;
79308;SDS011;68767;53.078;7.386;2023-12-07T05:00:22;20.98;;;9.77;;
79308;SDS011;68767;53.078;7.386;2023-12-07T05:02:49;22.30;;;10.63;;
79308;SDS011;68767;53.078;7.386;2023-12-07T05:05:16;25.60;;;10.98;;
79308;SDS011;68767;53.078;7.386;2023-12-07T05:07:43;21.25;;;10.40;;
79308;SDS011;68767;53.078;7.386;2023-12-07T05:10:11;25.05;;;10.80;;
79308;SDS011;68767;53.078;7.386;2023-12-07T05:12:38;22.30;;;9.98;;
79308;SDS011;68767;53.078;7.386;2023-12-07T05:15:05;18.55;;;9.35;;
79308;SDS011;68767;53.078;7.386;2023-12-07T05:17:33;24.00;;;10.60;;
79308;SDS011;68767;53.078;7.386;2023-12-07T05:20:00;22.73;;;9.70;;
79308;SDS011;68767;53.078;7.386;2023-12-07T05:22:28;27.77;;;12.45;;
79308;SDS011;68767;53.078;7.386;2023-12-07T05:24:55;125.57;;;46.88;;
79308;SDS011;68767;53.078;7.386;2023-12-07T05:27:23;24.42;;;10.35;;
79308;SDS011;68767;53.078;7.386;2023-12-07T05:29:50;17.65;;;9.35;;
79308;SDS011;68767;53.078;7.386;2023-12-07T05:32:17;25.35;;;10.43;;
79308;SDS011;68767;53.078;7.386;2023-12-07T05:34:44;18.75;;;8.63;;
79308;SDS011;68767;53.078;7.386;2023-12-07T05:37:11;22.40;;;9.40;;
79308;SDS011;68767;53.078;7.386;2023-12-07T05:39:38;23.52;;;9.90;;
79308;SDS011;68767;53.078;7.386;2023-12-07T05:42:05;21.05;;;9.23;;
79308;SDS011;68767;53.078;7.386;2023-12-07T05:44:32;21.15;;;10.23;;
79308;SDS011;68767;53.078;7.386;2023-12-07T05:46:59;20.95;;;9.35;;
79308;SDS011;68767;53.078;7.386;2023-12-07T05:49:26;22.98;;;11.27;;
79308;SDS011;68767;53.078;7.386;2023-12-07T05:51:53;25.80;;;11.38;;
79308;SDS011;68767;53.078;7.386;2023-12-07T05:54:20;22.48;;;10.13;;
79308;SDS011;68767;53.078;7.386;2023-12-07T05:56:49;22.15;;;10.25;;
79308;SDS011;68767;53.078;7.386;2023-12-07T05:59:16;25.10;;;11.02;;
79308;SDS011;68767;53.078;7.386;2023-12-07T06:01:43;27.40;;;11.70;;
79308;SDS011;68767;53.078;7.386;2023-12-07T06:04:11;24.45;;;11.35;;
79308;SDS011;68767;53.078;7.386;2023-12-07T06:06:39;22.13;;;10.35;;
79308;SDS011;68767;53.078;7.386;2023-12-07T06:09:06;23.30;;;10.93;;
79308;SDS011;68767;53.078;7.386;2023-12-07T06:11:35;25.00;;;11.90;;
79308;SDS011;68767;53.078;7.386;2023-12-07T06:14:02;23.60;;;11.20;;
79308;SDS011;68767;53.078;7.386;2023-12-07T06:16:29;28.10;;;11.90;;
79308;SDS011;68767;53.078;7.386;2023-12-07T06:18:56;26.63;;;10.43;;
79308;SDS011;68767;53.078;7.386;2023-12-07T06:21:24;24.33;;;11.52;;
79308;SDS011;68767;53.078;7.386;2023-12-07T06:23:52;24.15;;;11.43;;
79308;SDS011;68767;53.078;7.386;2023-12-07T06:26:19;24.20;;;11.02;;
79308;SDS011;68767;53.078;7.386;2023-12-07T06:28:46;28.13;;;11.57;;
79308;SDS011;68767;53.078;7.386;2023-12-07T06:31:14;25.48;;;11.18;;
79308;SDS011;68767;53.078;7.386;2023-12-07T06:33:48;27.83;;;11.55;;
79308;SDS011;68767;53.078;7.386;2023-12-07T06:38:47;23.85;;;10.55;;
79308;SDS011;68767;53.078;7.386;2023-12-07T06:41:14;23.20;;;11.02;;
79308;SDS011;68767;53.078;7.386;2023-12-07T06:43:45;30.05;;;12.07;;
79308;SDS011;68767;53.078;7.386;2023-12-07T06:46:12;27.90;;;11.43;;
79308;SDS011;68767;53.078;7.386;2023-12-07T06:48:40;24.25;;;11.05;;
79308;SDS011;68767;53.078;7.386;2023-12-07T06:51:08;27.02;;;12.48;;
79308;SDS011;68767;53.078;7.386;2023-12-07T06:53:35;27.65;;;12.25;;
79308;SDS011;68767;53.078;7.386;2023-12-07T06:56:01;30.13;;;12.55;;
79308;SDS011;68767;53.078;7.386;2023-12-07T06:58:28;31.10;;;11.93;;
79308;SDS011;68767;53.078;7.386;2023-12-07T07:00:55;31.67;;;12.43;;
79308;SDS011;68767;53.078;7.386;2023-12-07T07:03:24;27.05;;;12.77;;
79308;SDS011;68767;53.078;7.386;2023-12-07T07:05:51;27.85;;;11.93;;
79308;SDS011;68767;53.078;7.386;2023-12-07T07:08:18;29.45;;;12.80;;
79308;SDS011;68767;53.078;7.386;2023-12-07T07:10:45;31.70;;;12.50;;
79308;SDS011;68767;53.078;7.386;2023-12-07T07:13:16;29.80;;;12.75;;
79308;SDS011;68767;53.078;7.386;2023-12-07T07:15:44;32.25;;;12.00;;
79308;SDS011;68767;53.078;7.386;2023-12-07T07:18:11;25.30;;;12.05;;
79308;SDS011;68767;53.078;7.386;2023-12-07T07:20:38;30.95;;;12.95;;
79308;SDS011;68767;53.078;7.386;2023-12-07T07:23:05;34.60;;;12.95;;
79308;SDS011;68767;53.078;7.386;2023-12-07T07:25:34;31.63;;;12.70;;
79308;SDS011;68767;53.078;7.386;2023-12-07T07:28:01;30.88;;;13.10;;
79308;SDS011;68767;53.078;7.386;2023-12-07T07:30:29;23.25;;;11.35;;
79308;SDS011;68767;53.078;7.386;2023-12-07T07:32:56;34.13;;;13.63;;
79308;SDS011;68767;53.078;7.386;2023-12-07T07:35:23;30.30;;;13.77;;
79308;SDS011;68767;53.078;7.386;2023-12-07T07:37:50;29.08;;;13.07;;
79308;SDS011;68767;53.078;7.386;2023-12-07T07:40:17;31.50;;;14.13;;
79308;SDS011;68767;53.078;7.386;2023-12-07T07:42:44;26.83;;;11.90;;
79308;SDS011;68767;53.078;7.386;2023-12-07T07:45:11;33.65;;;13.30;;
79308;SDS011;68767;53.078;7.386;2023-12-07T07:47:38;30.08;;;14.77;;
79308;SDS011;68767;53.078;7.386;2023-12-07T07:50:05;34.13;;;14.65;;
79308;SDS011;68767;53.078;7.386;2023-12-07T07:52:33;29.77;;;13.02;;
79308;SDS011;68767;53.078;7.386;2023-12-07T07:55:00;28.73;;;13.68;;
79308;SDS011;68767;53.078;7.386;2023-12-07T07:57:30;31.23;;;14.60;;
79308;SDS011;68767;53.078;7.386;2023-12-07T07:59:57;32.47;;;15.18;;
79308;SDS011;68767;53.078;7.386;2023-12-07T08:02:24;34.25;;;14.95;;
79308;SDS011;68767;53.078;7.386;2023-12-07T08:04:51;36.88;;;14.50;;
79308;SDS011;68767;53.078;7.386;2023-12-07T08:07:18;33.30;;;13.43;;
79308;SDS011;68767;53.078;7.386;2023-12-07T08:09:45;34.38;;;14.85;;
79308;SDS011;68767;53.078;7.386;2023-12-07T08:12:12;28.42;;;12.20;;
79308;SDS011;68767;53.078;7.386;2023-12-07T08:14:39;34.17;;;15.25;;
79308;SDS011;68767;53.078;7.386;2023-12-07T08:17:07;31.73;;;14.75;;
79308;SDS011;68767;53.078;7.386;2023-12-07T08:19:33;39.83;;;16.02;;
79308;SDS011;68767;53.078;7.386;2023-12-07T08:22:00;33.72;;;13.40;;
79308;SDS011;68767;53.078;7.386;2023-12-07T08:24:27;33.70;;;14.90;;
79308;SDS011;68767;53.078;7.386;2023-12-07T08:26:57;36.40;;;15.63;;
79308;SDS011;68767;53.078;7.386;2023-12-07T08:29:24;35.35;;;16.13;;
79308;SDS011;68767;53.078;7.386;2023-12-07T08:31:51;34.83;;;15.23;;
79308;SDS011;68767;53.078;7.386;2023-12-07T08:34:18;36.75;;;16.27;;
79308;SDS011;68767;53.078;7.386;2023-12-07T08:36:48;34.65;;;14.68;;
79308;SDS011;68767;53.078;7.386;2023-12-07T08:39:15;33.42;;;14.05;;
79308;SDS011;68767;53.078;7.386;2023-12-07T08:41:42;32.95;;;15.45;;
79308;SDS011;68767;53.078;7.386;2023-12-07T08:44:09;44.72;;;14.23;;
79308;SDS011;68767;53.078;7.386;2023-12-07T08:46:36;31.20;;;13.68;;
79308;SDS011;68767;53.078;7.386;2023-12-07T08:49:03;35.65;;;16.15;;
79308;SDS011;68767;53.078;7.386;2023-12-07T08:51:30;30.60;;;14.38;;
79308;SDS011;68767;53.078;7.386;2023-12-07T08:53:57;35.75;;;15.43;;
79308;SDS011;68767;53.078;7.386;2023-12-07T08:56:24;35.55;;;15.13;;
79308;SDS011;68767;53.078;7.386;2023-12-07T08:58:52;39.83;;;16.33;;
79308;SDS011;68767;53.078;7.386;2023-12-07T09:01:19;35.15;;;15.70;;
79308;SDS011;68767;53.078;7.386;2023-12-07T09:03:57;36.20;;;15.50;;
79308;SDS011;68767;53.078;7.386;2023-12-07T09:06:24;31.33;;;15.93;;
79308;SDS011;68767;53.078;7.386;2023-12-07T09:08:52;35.88;;;15.50;;
79308;SDS011;68767;53.078;7.386;2023-12-07T09:11:19;33.83;;;16.30;;
79308;SDS011;68767;53.078;7.386;2023-12-07T09:13:46;36.97;;;14.80;;
79308;SDS011;68767;53.078;7.386;2023-12-07T09:16:13;32.38;;;16.50;;
79308;SDS011;68767;53.078;7.386;2023-12-07T09:18:41;40.00;;;15.02;;
79308;SDS011;68767;53.078;7.386;2023-12-07T09:21:09;38.58;;;15.95;;
79308;SDS011;68767;53.078;7.386;2023-12-07T09:23:36;37.78;;;16.02;;
79308;SDS011;68767;53.078;7.386;2023-12-07T09:26:04;34.42;;;14.65;;
79308;SDS011;68767;53.078;7.386;2023-12-07T09:28:31;28.85;;;14.57;;
79308;SDS011;68767;53.078;7.386;2023-12-07T09:31:00;31.17;;;15.13;;
79308;SDS011;68767;53.078;7.386;2023-12-07T09:33:27;35.60;;;14.95;;
79308;SDS011;68767;53.078;7.386;2023-12-07T09:35:54;29.95;;;13.73;;
79308;SDS011;68767;53.078;7.386;2023-12-07T09:38:21;39.30;;;16.55;;
79308;SDS011;68767;53.078;7.386;2023-12-07T09:40:52;32.95;;;15.98;;
79308;SDS011;68767;53.078;7.386;2023-12-07T09:43:19;26.20;;;13.48;;
79308;SDS011;68767;53.078;7.386;2023-12-07T09:45:46;31.17;;;14.40;;
79308;SDS011;68767;53.078;7.386;2023-12-07T09:48:15;34.63;;;14.88;;
79308;SDS011;68767;53.078;7.386;2023-12-07T09:50:44;35.75;;;16.52;;
79308;SDS011;68767;53.078;7.386;2023-12-07T09:53:11;35.50;;;15.43;;
79308;SDS011;68767;53.078;7.386;2023-12-07T09:55:38;33.05;;;15.10;;
79308;SDS011;68767;53.078;7.386;2023-12-07T09:58:06;37.20;;;15.38;;
79308;SDS011;68767;53.078;7.386;2023-12-07T10:00:35;32.53;;;14.60;;
79308;SDS011;68767;53.078;7.386;2023-12-07T10:03:03;34.47;;;14.35;;
79308;SDS011;68767;53.078;7.386;2023-12-07T10:05:52;31.15;;;15.02;;
79308;SDS011;68767;53.078;7.386;2023-12-07T10:08:33;29.67;;;12.88;;
79308;SDS011;68767;53.078;7.386;2023-12-07T10:13:39;33.80;;;13.02;;
79308;SDS011;68767;53.078;7.386;2023-12-07T10:16:09;33.17;;;13.70;;
79308;SDS011;68767;53.078;7.386;2023-12-07T10:18:38;39.08;;;15.38;;
79308;SDS011;68767;53.078;7.386;2023-12-07T10:21:09;33.97;;;14.27;;
79308;SDS011;68767;53.078;7.386;2023-12-07T10:23:37;33.28;;;14.77;;
79308;SDS011;68767;53.078;7.386;2023-12-07T10:26:05;29.60;;;13.50;;
79308;SDS011;68767;53.078;7.386;2023-12-07T10:28:34;29.30;;;14.00;;
79308;SDS011;68767;53.078;7.386;2023-12-07T10:31:02;32.30;;;14.57;;
79308;SDS011;68767;53.078;7.386;2023-12-07T10:33:29;30.95;;;14.30;;
79308;SDS011;68767;53.078;7.386;2023-12-07T10:35:56;32.88;;;13.93;;
79308;SDS011;68767;53.078;7.386;2023-12-07T10:38:23;25.13;;;11.75;;
79308;SDS011;68767;53.078;7.386;2023-12-07T10:40:50;30.42;;;14.40;;
79308;SDS011;68767;53.078;7.386;2023-12-07T10:43:31;30.98;;;14.30;;
79308;SDS011;68767;53.078;7.386;2023-12-07T10:46:03;27.38;;;12.63;;
79308;SDS011;68767;53.078;7.386;2023-12-07T10:48:32;32.65;;;14.55;;
79308;SDS011;68767;53.078;7.386;2023-12-07T10:51:00;25.65;;;11.52;;
79308;SDS011;68767;53.078;7.386;2023-12-07T10:53:37;28.63;;;14.30;;
79308;SDS011;68767;53.078;7.386;2023-12-07T10:56:09;30.67;;;13.98;;
79308;SDS011;68767;53.078;7.386;2023-12-07T10:58:38;29.08;;;14.20;;
79308;SDS011;68767;53.078;7.386;2023-12-07T11:01:07;29.70;;;15.23;;
79308;SDS011;68767;53.078;7.386;2023-12-07T11:03:36;30.92;;;15.35;;
79308;SDS011;68767;53.078;7.386;2023-12-07T11:06:07;32.22;;;15.18;;
79308;SDS011;68767;53.078;7.386;2023-12-07T11:08:50;24.10;;;12.68;;
79308;SDS011;68767;53.078;7.386;2023-12-07T11:11:33;30.27;;;13.00;;
79308;SDS011;68767;53.078;7.386;2023-12-07T11:14:06;29.17;;;14.35;;
79308;SDS011;68767;53.078;7.386;2023-12-07T11:16:42;33.13;;;14.48;;
79308;SDS011;68767;53.078;7.386;2023-12-07T11:22:07;25.98;;;12.27;;
79308;SDS011;68767;53.078;7.386;2023-12-07T11:24:35;23.50;;;10.63;;
79308;SDS011;68767;53.078;7.386;2023-12-07T11:27:03;33.15;;;15.38;;
79308;SDS011;68767;53.078;7.386;2023-12-07T11:29:31;25.63;;;12.27;;
79308;SDS011;68767;53.078;7.386;2023-12-07T11:32:02;33.83;;;14.63;;
79308;SDS011;68767;53.078;7.386;2023-12-07T11:34:45;32.28;;;14.45;;
79308;SDS011;68767;53.078;7.386;2023-12-07T11:37:15;32.47;;;14.95;;
79308;SDS011;68767;53.078;7.386;2023-12-07T11:39:46;29.98;;;13.93;;
79308;SDS011;68767;53.078;7.386;2023-12-07T11:42:17;32.40;;;15.18;;
79308;SDS011;68767;53.078;7.386;2023-12-07T11:44:47;36.35;;;16.23;;
79308;SDS011;68767;53.078;7.386;2023-12-07T11:47:19;37.25;;;17.05;;
79308;SDS011;68767;53.078;7.386;2023-12-07T11:49:47;39.75;;;16.45;;
79308;SDS011;68767;53.078;7.386;2023-12-07T11:52:18;29.35;;;13.02;;
79308;SDS011;68767;53.078;7.386;2023-12-07T11:54:47;29.02;;;13.57;;
79308;SDS011;68767;53.078;7.386;2023-12-07T11:57:15;38.55;;;18.40;;
79308;SDS011;68767;53.078;7.386;2023-12-07T11:59:46;25.88;;;13.30;;
79308;SDS011;68767;53.078;7.386;2023-12-07T12:02:16;34.30;;;15.38;;
79308;SDS011;68767;53.078;7.386;2023-12-07T12:04:43;36.35;;;17.45;;
79308;SDS011;68767;53.078;7.386;2023-12-07T12:07:10;39.38;;;16.42;;
79308;SDS011;68767;53.078;7.386;2023-12-07T12:09:38;29.02;;;14.32;;
79308;SDS011;68767;53.078;7.386;2023-12-07T12:12:05;39.33;;;18.60;;
79308;SDS011;68767;53.078;7.386;2023-12-07T12:14:32;38.80;;;17.63;;
79308;SDS011;68767;53.078;7.386;2023-12-07T12:16:59;42.72;;;17.13;;
79308;SDS011;68767;53.078;7.386;2023-12-07T12:19:27;45.38;;;18.42;;
79308;SDS011;68767;53.078;7.386;2023-12-07T12:22:03;43.33;;;18.58;;
79308;SDS011;68767;53.078;7.386;2023-12-07T12:24:36;42.67;;;18.92;;
79308;SDS011;68767;53.078;7.386;2023-12-07T12:27:06;36.03;;;16.30;;
79308;SDS011;68767;53.078;7.386;2023-12-07T12:29:33;38.50;;;17.15;;
79308;SDS011;68767;53.078;7.386;2023-12-07T12:32:02;38.60;;;14.52;;
79308;SDS011;68767;53.078;7.386;2023-12-07T12:34:32;43.63;;;18.58;;
79308;SDS011;68767;53.078;7.386;2023-12-07T12:37:00;51.08;;;20.48;;
79308;SDS011;68767;53.078;7.386;2023-12-07T12:39:29;50.08;;;21.67;;
79308;SDS011;68767;53.078;7.386;2023-12-07T12:42:00;35.50;;;15.38;;
79308;SDS011;68767;53.078;7.386;2023-12-07T12:44:30;57.75;;;20.90;;
79308;SDS011;68767;53.078;7.386;2023-12-07T12:47:07;53.08;;;20.40;;
79308;SDS011;68767;53.078;7.386;2023-12-07T12:49:39;61.55;;;22.65;;
79308;SDS011;68767;53.078;7.386;2023-12-07T12:52:10;58.25;;;20.50;;
79308;SDS011;68767;53.078;7.386;2023-12-07T12:54:39;48.90;;;17.55;;
79308;SDS011;68767;53.078;7.386;2023-12-07T12:57:09;71.40;;;24.38;;
79308;SDS011;68767;53.078;7.386;2023-12-07T12:59:36;77.10;;;24.83;;
79308;SDS011;68767;53.078;7.386;2023-12-07T13:02:03;66.47;;;22.70;;
79308;SDS011;68767;53.078;7.386;2023-12-07T13:04:31;68.93;;;23.20;;
79308;SDS011;68767;53.078;7.386;2023-12-07T13:07:07;60.63;;;20.00;;
79308;SDS011;68767;53.078;7.386;2023-12-07T13:09:35;69.20;;;21.88;;
79308;SDS011;68767;53.078;7.386;2023-12-07T13:12:02;56.13;;;19.23;;
79308;SDS011;68767;53.078;7.386;2023-12-07T13:14:32;69.15;;;21.33;;
79308;SDS011;68767;53.078;7.386;2023-12-07T13:17:03;70.05;;;22.92;;
79308;SDS011;68767;53.078;7.386;2023-12-07T13:19:34;63.28;;;19.65;;
79308;SDS011;68767;53.078;7.386;2023-12-07T13:22:02;75.45;;;23.60;;
79308;SDS011;68767;53.078;7.386;2023-12-07T13:24:30;73.13;;;24.20;;
79308;SDS011;68767;53.078;7.386;2023-12-07T13:26:57;76.25;;;26.15;;
79308;SDS011;68767;53.078;7.386;2023-12-07T13:29:27;81.35;;;27.52;;
79308;SDS011;68767;53.078;7.386;2023-12-07T13:32:02;65.43;;;20.27;;
79308;SDS011;68767;53.078;7.386;2023-12-07T13:34:29;69.07;;;22.50;;
79308;SDS011;68767;53.078;7.386;2023-12-07T13:36:56;67.40;;;22.23;;
79308;SDS011;68767;53.078;7.386;2023-12-07T13:39:23;65.40;;;19.30;;
79308;SDS011;68767;53.078;7.386;2023-12-07T13:41:57;58.97;;;18.08;;
79308;SDS011;68767;53.078;7.386;2023-12-07T13:44:27;56.78;;;17.17;;
79308;SDS011;68767;53.078;7.386;2023-12-07T13:46:55;65.38;;;21.13;;
79308;SDS011;68767;53.078;7.386;2023-12-07T13:49:24;59.20;;;19.15;;
79308;SDS011;68767;53.078;7.386;2023-12-07T13:52:02;61.72;;;20.40;;
79308;SDS011;68767;53.078;7.386;2023-12-07T13:54:36;64.93;;;20.05;;
79308;SDS011;68767;53.078;7.386;2023-12-07T13:57:22;71.13;;;18.75;;
79308;SDS011;68767;53.078;7.386;2023-12-07T13:59:53;58.42;;;18.77;;
79308;SDS011;68767;53.078;7.386;2023-12-07T14:02:21;47.15;;;13.82;;
79308;SDS011;68767;53.078;7.386;2023-12-07T14:04:49;45.92;;;16.27;;
79308;SDS011;68767;53.078;7.386;2023-12-07T14:07:18;62.85;;;20.17;;
79308;SDS011;68767;53.078;7.386;2023-12-07T14:09:48;60.15;;;19.42;;
79308;SDS011;68767;53.078;7.386;2023-12-07T14:12:24;72.20;;;20.98;;
79308;SDS011;68767;53.078;7.386;2023-12-07T14:14:56;59.20;;;18.55;;
79308;SDS011;68767;53.078;7.386;2023-12-07T14:17:23;72.45;;;20.88;;
79308;SDS011;68767;53.078;7.386;2023-12-07T14:19:53;69.97;;;20.40;;
79308;SDS011;68767;53.078;7.386;2023-12-07T14:25:03;62.10;;;19.02;;
79308;SDS011;68767;53.078;7.386;2023-12-07T14:27:30;77.90;;;18.38;;
79308;SDS011;68767;53.078;7.386;2023-12-07T14:29:57;65.45;;;19.27;;
79308;SDS011;68767;53.078;7.386;2023-12-07T14:32:24;41.95;;;16.63;;
79308;SDS011;68767;53.078;7.386;2023-12-07T14:34:52;79.00;;;22.13;;
79308;SDS011;68767;53.078;7.386;2023-12-07T14:37:19;66.88;;;21.15;;
79308;SDS011;68767;53.078;7.386;2023-12-07T14:39:46;82.50;;;21.65;;
79308;SDS011;68767;53.078;7.386;2023-12-07T14:42:13;88.68;;;23.85;;
79308;SDS011;68767;53.078;7.386;2023-12-07T14:44:40;87.28;;;24.63;;
79308;SDS011;68767;53.078;7.386;2023-12-07T14:47:07;76.85;;;23.10;;